Time;durP1;ratioP1;P1;durP2;ratioP2;P2;SDS_P1;SDS_P2;PMS_P1;PMS_P2;Temp;Humidity;BMP_temperature;BMP_pressure;BME280_temperature;BME280_humidity;BME280_pressure;Samples;Min_cycle;Max_cycle;Signal;HPM_P1;HPM_P2
2022/03/10 00:01:28;;;;;;;;;;;1.90;89.10;;;1.16;58.80;97915.22;4986533;28;19949;-43
2022/03/10 00:03:53;;;;;;;;;;;1.80;89.00;;;1.10;59.89;97922.09;4984240;28;20008;-48
2022/03/10 00:06:19;;;;;;;;;;;1.80;89.80;;;1.03;60.51;97917.72;4987137;28;19925;-48
2022/03/10 00:08:44;;;;;;;;;;;1.80;90.10;;;0.98;60.64;97926.31;4987021;28;19941;-47
2022/03/10 00:11:10;;;;;;;;;;;1.70;90.10;;;0.94;61.60;97925.41;4983637;28;20283;-43
2022/03/10 00:13:35;;;;;;;;;;;1.70;90.60;;;0.93;60.58;97929.75;4989517;28;20008;-48
2022/03/10 00:16:01;;;;;;;;;;;1.70;90.10;;;1.01;59.85;97932.41;4988666;28;19925;-50
2022/03/10 00:18:27;;;;;;;;;;;1.70;90.00;;;1.06;59.16;97929.84;4987153;28;20015;-44
2022/03/10 00:20:52;;;;;;;;;;;1.80;89.70;;;1.07;59.05;97935.06;4982783;28;20509;-45
2022/03/10 00:23:18;;;;;;;;;;;1.80;89.40;;;1.06;58.96;97933.34;4978354;28;19917;-40
2022/03/10 00:25:44;;;;;;;;;;;1.80;89.50;;;1.08;59.82;97936.81;4985039;28;19921;-45
2022/03/10 00:28:10;;;;;;;;;;;1.80;90.00;;;1.06;60.07;97940.22;4970330;28;20093;-41
2022/03/10 00:30:35;;;;;;;;;;;1.80;90.10;;;1.04;60.00;97941.94;4984626;28;19917;-44
2022/03/10 00:33:01;;;;;;;;;;;1.80;90.10;;;1.00;59.86;97938.44;4984278;28;19932;-40
2022/03/10 00:35:27;;;;;;;;;;;1.80;90.10;;;1.01;59.86;97941.94;4985290;28;19968;-45
2022/03/10 00:37:53;;;;;;;;;;;1.70;90.10;;;1.03;60.51;97948.03;4965485;28;20060;-45
2022/03/10 00:40:20;;;;;;;;;;;1.70;90.20;;;1.02;59.72;97944.53;4983136;28;20224;-46
2022/03/10 00:42:45;;;;;;;;;;;1.70;90.20;;;1.03;59.75;97956.69;4982623;28;19974;-39
2022/03/10 00:45:12;;;;;;;;;;;1.80;90.20;;;1.04;59.21;97952.34;4986457;28;19921;-42
2022/03/10 00:47:38;;;;;;;;;;;1.70;90.00;;;0.94;58.67;97921.09;4984151;28;19924;-42
2022/03/10 00:50:05;;;;;;;;;;;1.80;89.60;;;1.14;58.49;97954.19;4976356;28;20008;-45
2022/03/10 00:52:31;;;;;;;;;;;1.80;89.30;;;1.08;59.09;97954.13;4982293;28;19925;-45
2022/03/10 00:54:56;;;;;;;;;;;1.80;89.80;;;1.03;58.44;97950.63;4985620;28;19925;-42
2022/03/10 00:57:22;;;;;;;;;;;1.80;89.40;;;1.03;58.01;97948.88;4983788;28;20390;-45
2022/03/10 00:59:48;;;;;;;;;;;1.80;89.00;;;1.00;57.79;97948.84;4988462;28;19921;-44
2022/03/10 01:02:13;;;;;;;;;;;1.80;88.60;;;1.04;57.75;97952.34;4983661;28;20003;-47
2022/03/10 01:04:39;;;;;;;;;;;1.70;88.60;;;1.10;57.27;97949.81;4985438;28;19987;-46
2022/03/10 01:07:05;;;;;;;;;;;1.80;88.40;;;0.92;57.19;97915.00;4984340;28;19921;-42
2022/03/10 01:09:30;;;;;;;;;;;1.90;88.40;;;1.10;57.50;97945.47;4985215;28;20012;-43
2022/03/10 01:11:56;;;;;;;;;;;1.80;88.80;;;0.96;57.99;97928.91;4984408;28;19921;-46
2022/03/10 01:14:21;;;;;;;;;;;1.70;88.80;;;1.05;57.88;97935.91;4985007;28;20662;-46
2022/03/10 01:16:47;;;;;;;;;;;1.70;89.00;;;1.02;58.14;97938.47;4983808;28;19917;-42
2022/03/10 01:19:14;;;;;;;;;;;1.70;89.20;;;0.98;59.84;97936.72;4986563;28;19963;-46
2022/03/10 01:21:41;;;;;;;;;;;1.70;90.20;;;0.90;60.87;97934.91;4980441;28;19949;-44
2022/03/10 01:24:07;;;;;;;;;;;1.70;90.70;;;0.76;60.36;97924.38;4981880;28;20475;-44
2022/03/10 01:26:33;;;;;;;;;;;1.60;90.50;;;0.76;61.05;97931.31;4980222;28;20459;-45
2022/03/10 01:28:58;;;;;;;;;;;1.50;90.70;;;0.73;61.28;97933.84;4986637;28;19917;-41
2022/03/10 01:31:24;;;;;;;;;;;1.50;90.80;;;0.68;60.97;97927.75;4989551;28;20385;-47
2022/03/10 01:33:50;;;;;;;;;;;1.50;90.70;;;0.73;60.48;97931.25;4992918;28;20060;-41
2022/03/10 01:36:16;;;;;;;;;;;1.50;90.60;;;0.73;60.69;97926.94;4984040;28;19957;-45
2022/03/10 01:38:42;;;;;;;;;;;1.50;90.70;;;0.79;60.32;97922.66;4981480;28;19928;-45
2022/03/10 01:41:09;;;;;;;;;;;1.50;90.60;;;0.78;60.26;97923.53;4972832;28;19940;-43
2022/03/10 01:44:12;;;;;;;;;;;1.50;90.60;;;0.57;59.74;97889.59;4983807;28;19917;-45
2022/03/10 01:46:38;;;;;;;;;;;1.50;90.40;;;0.72;59.94;97917.41;4985316;28;19927;-44
2022/03/10 01:49:05;;;;;;;;;;;1.50;90.50;;;0.81;59.70;97924.44;4981849;28;21011;-40
2022/03/10 01:51:31;;;;;;;;;;;1.50;90.40;;;0.84;59.47;97931.38;4985271;28;19921;-46
2022/03/10 01:53:58;;;;;;;;;;;1.50;90.40;;;0.85;59.46;97922.75;4964023;28;19921;-45
2022/03/10 01:56:24;;;;;;;;;;;1.50;90.40;;;0.84;59.30;97926.19;4982398;28;19918;-44
2022/03/10 01:58:51;;;;;;;;;;;1.50;90.30;;;0.86;59.30;97930.56;4981863;28;19929;-46
2022/03/10 02:01:17;;;;;;;;;;;1.60;90.40;;;0.85;59.42;97927.94;4987002;28;19968;-46
2022/03/10 02:03:43;;;;;;;;;;;1.50;90.30;;;0.79;59.46;97910.56;4981436;28;19928;-45
2022/03/10 02:06:10;;;;;;;;;;;1.60;90.40;;;0.81;60.01;97916.66;4986082;28;19917;-41
2022/03/10 02:11:21;;;;;;;;;;;1.50;91.10;;;0.72;61.51;97914.81;4984640;28;19939;-44
2022/03/10 02:13:47;;;;;;;;;;;1.50;91.20;;;0.69;61.64;97926.91;4964026;28;19928;-44
2022/03/10 02:18:58;;;;;;;;;;;1.40;91.00;;;0.68;61.14;97923.44;4985191;28;19964;-41
2022/03/10 02:21:24;;;;;;;;;;;1.40;91.00;;;0.69;61.37;97922.56;4984218;28;20434;-43
2022/03/10 02:23:49;;;;;;;;;;;1.40;91.10;;;0.50;61.91;97903.34;4993479;23;19932;-79
2022/03/10 02:26:15;;;;;;;;;;;1.40;91.40;;;0.59;61.95;97922.44;4975879;28;20220;-78
2022/03/10 02:28:42;;;;;;;;;;;1.40;91.30;;;0.57;62.07;97930.22;5003853;28;19921;-79
2022/03/10 02:31:08;;;;;;;;;;;1.30;91.40;;;0.51;63.32;97924.97;4990459;28;19939;-79
2022/03/10 02:33:34;;;;;;;;;;;1.30;91.90;;;0.47;63.41;97931.00;5007738;28;19921;-79
2022/03/10 02:36:00;;;;;;;;;;;1.30;92.00;;;0.21;63.29;97890.03;4992310;28;20205;-80
2022/03/10 02:38:26;;;;;;;;;;;1.20;91.90;;;0.30;64.65;97915.22;4994258;28;19942;-79
2022/03/10 02:40:51;;;;;;;;;;;1.20;92.30;;;0.27;64.70;97918.66;5006244;28;20772;-78
2022/03/10 02:43:19;;;;;;;;;;;1.10;92.40;;;0.14;65.01;97914.16;5006370;28;20402;-80
2022/03/10 02:45:45;;;;;;;;;;;1.10;92.50;;;0.11;65.25;97908.94;4973213;28;19917;-79
2022/03/10 02:48:12;;;;;;;;;;;1.00;92.50;;;0.11;66.09;97919.31;4989468;28;20291;-78
2022/03/10 02:50:37;;;;;;;;;;;1.00;92.90;;;-0.06;66.46;97898.34;5001795;28;19966;-79
2022/03/10 02:53:05;;;;;;;;;;;0.90;93.10;;;0.05;66.92;97927.00;4971183;28;21144;-79
2022/03/10 02:55:31;;;;;;;;;;;0.90;93.20;;;-0.07;67.50;97914.72;4987876;28;20378;-79
2022/03/10 02:57:57;;;;;;;;;;;0.90;93.40;;;-0.01;67.67;97931.25;4984050;28;20588;-80
2022/03/10 03:00:22;;;;;;;;;;;0.80;93.50;;;0.03;68.34;97941.66;4990228;28;19916;-80
2022/03/10 03:02:48;;;;;;;;;;;0.80;93.80;;;-0.14;68.87;97928.47;4988954;28;19928;-78
2022/03/10 03:05:14;;;;;;;;;;;0.70;93.90;;;-0.06;69.35;97947.59;4970880;28;20063;-79
2022/03/10 03:07:40;;;;;;;;;;;0.70;94.10;;;-0.09;70.04;97951.03;4987240;28;19964;-79
2022/03/10 03:10:06;;;;;;;;;;;0.70;94.30;;;-0.17;70.28;97944.84;4991072;28;19928;-79
2022/03/10 03:12:32;;;;;;;;;;;0.60;94.40;;;-0.32;70.71;97929.97;4990417;28;19962;-79
2022/03/10 03:14:58;;;;;;;;;;;0.60;95.00;;;-0.35;71.36;97935.09;4988097;28;20027;-80
2022/03/10 03:17:24;;;;;;;;;;;0.60;94.90;;;-0.30;72.23;97943.81;4984153;28;19925;-79
2022/03/10 03:19:51;;;;;;;;;;;0.50;95.20;;;-0.40;72.56;97940.19;4975022;28;20292;-78
2022/03/10 03:22:17;;;;;;;;;;;0.50;95.40;;;-0.43;73.09;97936.69;4987162;28;19917;-79
2022/03/10 03:24:44;;;;;;;;;;;0.50;95.60;;;-0.42;73.29;97938.44;4989302;28;19921;-79
2022/03/10 03:27:14;;;;;;;;;;;0.40;95.70;;;-0.55;73.45;97915.78;4988730;28;19978;-80
2022/03/10 03:29:39;;;;;;;;;;;0.40;95.80;;;-0.52;73.93;97931.38;4985006;28;20668;-78
2022/03/10 03:32:05;;;;;;;;;;;0.40;96.00;;;-0.63;74.50;97918.25;4985944;28;19917;-80
2022/03/10 03:34:31;;;;;;;;;;;0.30;96.30;;;-0.52;75.11;97945.22;4999939;28;19924;-79
2022/03/10 03:36:57;;;;;;;;;;;0.30;96.50;;;-0.67;75.63;97943.22;4987948;28;20473;-79
2022/03/10 03:39:23;;;;;;;;;;;0.20;96.80;;;-0.59;76.06;97962.38;4982882;28;19948;-79
2022/03/10 03:41:48;;;;;;;;;;;0.20;96.90;;;-0.74;76.39;97948.28;4972541;28;19920;-80
2022/03/10 03:44:14;;;;;;;;;;;0.10;97.20;;;-0.82;76.81;97940.41;4970018;28;19955;-79
2022/03/10 03:46:40;;;;;;;;;;;0.10;97.30;;;-0.71;76.57;97964.75;5002680;28;20140;-79
2022/03/10 03:49:07;;;;;;;;;;;0.10;97.30;;;-0.86;76.09;97942.06;4967948;28;20287;-80
2022/03/10 03:51:32;;;;;;;;;;;0.10;97.20;;;-0.73;76.35;97970.78;4984098;28;19927;-79
2022/03/10 03:53:58;;;;;;;;;;;0.10;97.70;;;-0.83;76.83;97951.59;5002927;28;19913;-78
2022/03/10 03:56:23;;;;;;;;;;;0.10;97.50;;;-0.77;76.58;97965.53;5002462;28;20015;-79
2022/03/10 03:58:49;;;;;;;;;;;0.10;97.50;;;-0.89;76.83;97949.78;4987194;28;19921;-79
2022/03/10 04:01:15;;;;;;;;;;;0.00;97.80;;;-1.28;77.16;97890.41;4992759;28;20011;-79
2022/03/10 04:03:40;;;;;;;;;;;0.00;98.10;;;-0.82;77.58;97968.91;4971642;28;20074;-79
2022/03/10 04:06:06;;;;;;;;;;;0.00;98.30;;;-0.85;78.36;97974.00;4988449;28;19917;-80
2022/03/10 04:08:32;;;;;;;;;;;0.00;98.60;;;-0.90;78.34;97967.88;5004250;28;20375;-78
2022/03/10 04:10:58;;;;;;;;;;;0.00;98.70;;;-0.87;78.32;97978.28;4987540;28;20508;-79
2022/03/10 04:13:23;;;;;;;;;;;-0.10;98.70;;;-0.93;78.44;97976.47;4975577;28;19924;-79
2022/03/10 04:15:49;;;;;;;;;;;-0.10;98.70;;;-1.09;78.43;97954.63;4975067;28;20008;-79
2022/03/10 04:18:16;;;;;;;;;;;-0.10;98.90;;;-1.01;78.57;97976.31;4987841;28;20258;-80
2022/03/10 04:20:43;;;;;;;;;;;-0.20;99.00;;;-0.99;78.49;97978.94;4974439;28;19920;-80
2022/03/10 04:23:10;;;;;;;;;;;-0.10;99.20;;;-1.16;78.61;97956.22;4989172;28;20050;-80
2022/03/10 04:25:36;;;;;;;;;;;-0.20;99.30;;;-1.19;78.27;97953.56;5005270;28;20008;-78
2022/03/10 04:28:01;;;;;;;;;;;-0.20;99.20;;;-0.91;75.89;97973.91;5006879;28;20010;-79
2022/03/10 04:30:27;;;;;;;;;;;-0.10;98.50;;;-0.85;75.27;97968.84;5011927;28;19960;-80
2022/03/10 04:32:52;;;;;;;;;;;0.00;98.50;;;-0.80;75.24;97972.38;4967271;28;20409;-79
2022/03/10 04:35:21;;;;;;;;;;;0.00;98.40;;;-0.87;74.82;97949.81;4992984;28;19925;-79
2022/03/10 04:37:49;;;;;;;;;;;0.10;98.20;;;-0.74;75.09;97976.78;5000066;28;19921;-79
2022/03/10 04:40:14;;;;;;;;;;;0.10;98.20;;;-0.81;74.75;97966.34;4988042;28;19921;-79
2022/03/10 04:42:41;;;;;;;;;;;0.00;98.20;;;-0.91;74.63;97950.63;4979003;28;19924;-78
2022/03/10 04:45:07;;;;;;;;;;;0.10;98.20;;;-0.80;75.21;97980.16;4989388;28;19947;-79
2022/03/10 04:47:34;;;;;;;;;;;0.10;98.30;;;-0.77;75.20;97975.88;4990458;28;19921;-80
2022/03/10 04:50:00;;;;;;;;;;;0.00;98.30;;;-0.81;74.62;97957.66;4985889;28;19949;-79
2022/03/10 04:52:26;;;;;;;;;;;0.10;98.20;;;-0.79;73.81;97966.34;4989698;28;20389;-79
2022/03/10 04:54:52;;;;;;;;;;;0.10;98.00;;;-0.84;73.46;97942.09;5003006;28;19975;-79
2022/03/10 04:57:17;;;;;;;;;;;0.10;98.20;;;-0.71;72.95;97954.41;4999505;28;20011;-80
2022/03/10 04:59:43;;;;;;;;;;;0.20;97.70;;;-0.71;72.01;97945.75;4987398;28;19942;-80
2022/03/10 05:02:09;;;;;;;;;;;0.20;97.40;;;-0.49;71.35;97973.75;4971155;28;19922;-79
2022/03/10 05:04:35;;;;;;;;;;;0.30;97.20;;;-0.81;71.68;97913.63;4990321;28;19920;-79
2022/03/10 05:07:00;;;;;;;;;;;0.30;97.20;;;-0.53;72.12;97950.38;4987863;28;19965;-79
2022/03/10 05:09:26;;;;;;;;;;;0.40;97.40;;;-0.55;72.60;97945.16;5007735;28;19972;-80
2022/03/10 05:11:52;;;;;;;;;;;0.30;97.50;;;-0.61;72.93;97938.16;4974591;28;19925;-80
2022/03/10 05:14:17;;;;;;;;;;;0.30;97.70;;;-0.62;73.58;97946.78;4988443;28;20007;-80
2022/03/10 05:16:43;;;;;;;;;;;0.30;97.90;;;-0.75;74.08;97936.19;4987490;28;19928;-79
2022/03/10 05:19:09;;;;;;;;;;;0.20;98.00;;;-0.74;74.38;97943.13;5007117;28;20601;-78
2022/03/10 05:21:35;;;;;;;;;;;0.20;98.20;;;-0.77;75.10;97939.63;5008333;28;19921;-79
2022/03/10 05:24:00;;;;;;;;;;;0.10;98.50;;;-1.02;75.99;97904.69;4977150;28;20053;-79
2022/03/10 05:26:26;;;;;;;;;;;0.10;98.80;;;-0.93;76.33;97921.19;4987551;28;19927;-79
2022/03/10 05:28:51;;;;;;;;;;;0.00;99.10;;;-0.91;76.77;97937.66;4992529;28;20426;-78
2022/03/10 05:31:17;;;;;;;;;;;0.00;99.20;;;-1.08;77.36;97920.09;4978973;28;20597;-79
2022/03/10 05:33:43;;;;;;;;;;;-0.10;99.50;;;-1.11;77.57;97919.16;4997805;28;20240;-79
2022/03/10 05:36:08;;;;;;;;;;;-0.10;99.70;;;-1.18;78.45;97920.81;4989623;28;20484;-80
2022/03/10 05:38:34;;;;;;;;;;;-0.20;99.90;;;-1.17;78.55;97931.19;5010502;28;20438;-80
2022/03/10 05:41:00;;;;;;;;;;;-0.20;99.90;;;-1.32;79.17;97911.91;4991490;28;19947;-80
2022/03/10 05:43:26;;;;;;;;;;;-0.30;99.90;;;-1.67;79.34;97865.56;4991508;28;20408;-79
2022/03/10 05:45:52;;;;;;;;;;;-0.30;99.90;;;-1.14;79.36;97952.78;4989461;28;19917;-79
2022/03/10 05:48:17;;;;;;;;;;;-0.30;99.90;;;-1.39;79.65;97916.97;5004032;28;19921;-80
2022/03/10 05:50:43;;;;;;;;;;;-0.30;99.90;;;-1.20;79.67;97945.78;4993126;28;19921;-79
2022/03/10 05:53:09;;;;;;;;;;;-0.30;99.90;;;-1.30;80.43;97938.69;5012191;28;19971;-79
2022/03/10 05:55:34;;;;;;;;;;;-0.30;99.90;;;-1.22;80.60;97950.94;5014067;28;20291;-78
2022/03/10 05:58:00;;;;;;;;;;;-0.30;99.90;;;-1.20;80.73;97961.31;4978908;28;19927;-79
2022/03/10 06:00:26;;;;;;;;;;;-0.30;99.90;;;-1.23;80.77;97954.34;4984045;28;19925;-80
2022/03/10 06:02:51;;;;;;;;;;;-0.30;99.90;;;-1.22;80.75;97955.22;4997095;28;19921;-79
2022/03/10 06:05:17;;;;;;;;;;;-0.30;99.90;;;-1.17;81.21;97963.94;4993274;28;20410;-80
2022/03/10 06:07:43;;;;;;;;;;;-0.30;99.90;;;-1.39;80.96;97924.72;4996151;28;19928;-79
2022/03/10 06:10:10;;;;;;;;;;;-0.30;99.90;;;-1.33;80.89;97939.50;4995612;28;20302;-80
2022/03/10 06:12:36;;;;;;;;;;;-0.40;99.90;;;-1.22;81.08;97958.69;4981448;28;19913;-79
2022/03/10 06:15:04;;;;;;;;;;;-0.30;99.90;;;-1.17;81.38;97966.53;5036206;28;19928;-79
2022/03/10 06:17:30;;;;;;;;;;;-0.30;99.90;;;-1.17;81.88;97964.84;5014961;28;20268;-79
2022/03/10 06:19:56;;;;;;;;;;;-0.30;99.90;;;-1.11;82.10;97966.66;4998898;28;19917;-80
2022/03/10 06:22:29;;;;;;;;;;;-0.20;99.90;;;-1.15;81.91;97957.06;5022894;28;19952;-80
2022/03/10 06:24:56;;;;;;;;;;;-0.20;99.90;;;-1.11;81.66;97951.13;4999768;28;19989;-80
2022/03/10 06:27:22;;;;;;;;;;;-0.10;99.90;;;-0.94;81.63;97964.34;4998952;28;19924;-80
2022/03/10 06:29:48;;;;;;;;;;;-0.10;99.90;;;-0.93;81.89;97963.53;4980839;28;19974;-79
2022/03/10 06:32:17;;;;;;;;;;;0.00;99.90;;;-0.82;81.70;97971.47;4996713;28;19921;-79
2022/03/10 06:34:43;;;;;;;;;;;0.00;99.90;;;-0.84;81.23;97958.50;5014527;28;19917;-80
2022/03/10 06:37:08;;;;;;;;;;;0.10;99.90;;;-0.83;80.85;97951.59;4995727;28;19921;-80
2022/03/10 06:39:34;;;;;;;;;;;0.10;99.90;;;-0.67;80.84;97974.31;4982489;28;19928;-79
2022/03/10 06:42:00;;;;;;;;;;;0.20;99.90;;;-0.75;80.38;97944.84;5000838;28;19924;-79
2022/03/10 06:44:26;;;;;;;;;;;0.30;99.90;;;-0.55;79.86;97970.22;4995946;28;20281;-79
2022/03/10 06:46:52;;;;;;;;;;;0.30;99.90;;;-0.47;80.09;97977.22;4996326;28;19917;-80
2022/03/10 06:49:18;;;;;;;;;;;0.40;99.90;;;-0.39;79.68;97983.41;4983144;28;19924;-79
2022/03/10 06:51:44;;;;;;;;;;;0.50;99.90;;;-0.34;78.90;97969.66;4978738;28;19963;-80
2022/03/10 06:54:10;;;;;;;;;;;0.60;99.90;;;-0.18;78.27;97974.22;4980118;28;19917;-81
2022/03/10 06:56:36;;;;;;;;;;;0.70;99.90;;;-0.09;77.54;97979.56;4996094;28;20394;-82
2022/03/10 06:59:01;;;;;;;;;;;0.80;99.90;;;0.08;77.02;97989.28;4995800;28;19927;-79
2022/03/10 07:01:27;;;;;;;;;;;1.00;99.90;;;0.02;76.22;97952.88;4981430;28;19921;-79
2022/03/10 07:03:57;;;;;;;;;;;1.10;99.90;;;0.29;75.67;97987.00;4996118;28;19941;-79
2022/03/10 07:06:23;;;;;;;;;;;1.20;99.90;;;0.42;75.11;97998.41;5010412;28;20027;-79
2022/03/10 07:08:49;;;;;;;;;;;1.30;99.90;;;0.45;75.11;97982.88;4980940;28;20334;-79
2022/03/10 07:11:15;;;;;;;;;;;1.40;99.90;;;0.53;74.04;97983.81;5003279;28;19917;-78
2022/03/10 07:13:40;;;;;;;;;;;1.50;99.90;;;0.63;72.96;97974.44;4994657;28;19917;-79
2022/03/10 07:16:06;;;;;;;;;;;1.60;99.60;;;0.79;72.39;97987.56;4994534;28;20158;-79
2022/03/10 07:18:32;;;;;;;;;;;1.70;99.40;;;0.93;72.68;97997.28;5011520;28;19921;-80
2022/03/10 07:20:57;;;;;;;;;;;1.80;99.50;;;0.87;72.84;97978.16;5010182;28;19920;-80
2022/03/10 07:23:23;;;;;;;;;;;1.90;99.50;;;0.94;72.20;97982.56;4998068;28;19964;-80
2022/03/10 07:25:49;;;;;;;;;;;2.00;99.30;;;0.94;72.25;97969.56;4997287;28;19925;-80
2022/03/10 07:28:14;;;;;;;;;;;2.00;99.20;;;1.18;71.96;97991.44;5014704;28;19936;-79
2022/03/10 07:30:40;;;;;;;;;;;2.10;99.20;;;1.32;71.24;98010.66;4995869;28;20136;-79
2022/03/10 07:33:06;;;;;;;;;;;2.20;99.00;;;1.28;71.25;97978.56;4999081;28;20056;-81
2022/03/10 07:35:31;;;;;;;;;;;2.30;99.00;;;1.49;71.07;98011.69;4997625;28;20417;-80
2022/03/10 07:37:59;;;;;;;;;;;2.40;98.80;;;1.61;70.73;98016.09;4980066;28;20254;-80
2022/03/10 07:40:26;;;;;;;;;;;2.40;98.70;;;1.62;70.12;98014.38;5001186;28;20365;-80
2022/03/10 07:42:51;;;;;;;;;;;2.50;98.50;;;1.75;68.91;98020.56;5013300;28;19943;-80
2022/03/10 07:45:17;;;;;;;;;;;2.60;98.10;;;1.89;67.81;98040.59;4997960;28;19920;-80
2022/03/10 07:47:43;;;;;;;;;;;2.70;97.70;;;1.93;67.08;98031.09;4983600;28;19927;-79
2022/03/10 07:50:09;;;;;;;;;;;2.80;97.40;;;1.92;66.27;98013.75;4997020;28;20393;-80
2022/03/10 07:52:35;;;;;;;;;;;2.80;97.10;;;2.13;66.02;98032.97;5001083;28;20462;-79
2022/03/10 07:55:01;;;;;;;;;;;3.00;97.00;;;2.13;65.39;98025.16;5007843;28;19944;-79
2022/03/10 07:57:26;;;;;;;;;;;3.00;96.80;;;2.17;64.63;98013.91;5019088;28;19917;-79
2022/03/10 07:59:52;;;;;;;;;;;3.10;96.40;;;2.27;63.58;98008.75;4996184;28;20039;-80
2022/03/10 08:02:18;;;;;;;;;;;3.20;96.00;;;2.48;63.03;98030.59;5003911;28;20008;-79
2022/03/10 08:04:44;;;;;;;;;;;3.20;95.70;;;2.54;62.13;98027.16;4982401;28;19947;-79
2022/03/10 08:07:10;;;;;;;;;;;3.40;95.30;;;2.58;61.43;98021.06;4997861;28;19925;-80
2022/03/10 08:09:37;;;;;;;;;;;3.50;95.10;;;2.75;60.48;98029.84;4997026;28;19943;-80
2022/03/10 08:12:03;;;;;;;;;;;3.50;94.70;;;2.86;59.34;98032.50;4982900;28;20117;-79
2022/03/10 08:14:28;;;;;;;;;;;3.60;94.30;;;2.86;58.40;98017.72;4999571;28;19921;-82
2022/03/10 08:16:54;;;;;;;;;;;3.70;93.90;;;2.92;58.09;98011.66;5006711;28;19916;-84
2022/03/10 08:19:20;;;;;;;;;;;3.90;93.60;;;3.17;58.31;98022.16;5008145;28;19924;-83
2022/03/10 08:21:47;;;;;;;;;;;4.00;93.60;;;3.29;57.88;98030.00;5031405;28;20071;-86
2022/03/10 08:24:13;;;;;;;;;;;4.10;93.60;;;3.40;57.54;98024.81;5000358;28;19921;-83
2022/03/10 08:26:39;;;;;;;;;;;4.20;93.30;;;3.58;56.25;98031.78;4998614;28;19921;-82
2022/03/10 08:29:05;;;;;;;;;;;4.30;92.80;;;3.63;55.60;98020.50;4997194;28;19917;-85
2022/03/10 08:31:30;;;;;;;;;;;4.40;92.40;;;3.76;54.77;98021.38;5006355;28;19928;-85
2022/03/10 08:33:56;;;;;;;;;;;4.60;92.00;;;3.67;54.59;97984.00;4994847;28;19928;-85
2022/03/10 08:36:22;;;;;;;;;;;4.60;91.90;;;3.92;54.24;98003.09;4996876;28;20037;-82
2022/03/10 08:38:47;;;;;;;;;;;4.80;91.80;;;4.04;53.79;98004.81;5015479;28;20341;-83
2022/03/10 08:41:13;;;;;;;;;;;4.90;91.60;;;4.31;53.02;98017.84;4993870;28;19924;-83
2022/03/10 08:43:39;;;;;;;;;;;5.00;91.10;;;4.32;52.96;97997.81;4997218;28;19925;-85
2022/03/10 08:46:05;;;;;;;;;;;5.20;91.10;;;4.39;52.73;97983.88;5013239;28;20027;-84
2022/03/10 08:48:32;;;;;;;;;;;5.30;90.90;;;4.76;52.30;98013.34;4997474;28;20008;-85
2022/03/10 08:51:02;;;;;;;;;;;5.40;90.70;;;4.89;52.33;97997.63;4974125;28;19927;-85
2022/03/10 08:53:29;;;;;;;;;;;5.50;90.60;;;5.04;51.69;97994.91;5018598;28;19920;-84
2022/03/10 08:55:55;;;;;;;;;;;5.70;90.50;;;4.95;51.57;97967.09;4995291;28;19976;-85
2022/03/10 08:58:21;;;;;;;;;;;5.80;90.40;;;5.18;51.91;97984.38;5012549;28;19916;-84
2022/03/10 09:00:50;;;;;;;;;;;5.90;90.40;;;5.35;51.00;97999.97;4997667;28;20233;-86
2022/03/10 09:03:16;;;;;;;;;;;6.00;90.00;;;5.28;50.78;97964.28;5009512;28;19917;-83
2022/03/10 09:05:42;;;;;;;;;;;6.10;89.50;;;5.60;50.29;97994.56;5014857;28;19921;-85
2022/03/10 09:08:08;;;;;;;;;;;6.20;89.10;;;5.62;50.43;97983.22;5014298;28;19923;-84
2022/03/10 09:10:33;;;;;;;;;;;6.30;89.00;;;5.66;49.92;97979.69;4994426;28;20336;-82
2022/03/10 09:12:59;;;;;;;;;;;6.40;88.30;;;5.66;49.39;97956.13;4992817;28;19926;-85
2022/03/10 09:15:26;;;;;;;;;;;6.50;87.50;;;5.90;49.59;97988.19;4997251;28;19928;-87
2022/03/10 09:17:53;;;;;;;;;;;6.60;87.60;;;5.92;49.08;97971.63;4996416;28;19950;-87
2022/03/10 09:20:18;;;;;;;;;;;6.60;87.00;;;6.02;48.60;97963.69;5014197;28;19916;-83
2022/03/10 09:22:45;;;;;;;;;;;6.80;86.60;;;6.17;48.30;97955.66;4999379;28;21367;-85
2022/03/10 09:25:12;;;;;;;;;;;6.90;86.10;;;6.50;48.37;97983.28;4995817;28;20311;-87
2022/03/10 09:27:39;;;;;;;;;;;7.00;86.20;;;6.57;47.65;97962.22;4980264;28;20015;-85
2022/03/10 09:30:07;;;;;;;;;;;7.20;85.70;;;6.81;46.61;97967.16;5011078;28;19921;-86
2022/03/10 09:32:35;;;;;;;;;;;7.40;84.10;;;6.97;46.64;97974.84;5002576;28;19928;-83
2022/03/10 09:35:02;;;;;;;;;;;7.50;83.40;;;7.10;46.37;97958.03;4996026;28;19921;-86
2022/03/10 09:37:27;;;;;;;;;;;7.60;83.30;;;7.08;46.50;97965.06;4994181;28;19913;-86
2022/03/10 09:39:53;;;;;;;;;;;7.70;83.40;;;7.27;45.98;97970.94;4991988;28;20468;-85
2022/03/10 09:42:20;;;;;;;;;;;7.80;82.20;;;7.40;45.33;97975.09;4996141;28;19960;-85
2022/03/10 09:44:47;;;;;;;;;;;7.90;82.40;;;7.41;45.21;97954.97;5007388;28;20419;-85
2022/03/10 09:47:13;;;;;;;;;;;8.00;81.20;;;7.41;44.59;97952.34;4977136;28;20506;-85
2022/03/10 09:49:40;;;;;;;;;;;8.10;80.80;;;7.45;44.43;97957.53;4996435;28;19928;-85
2022/03/10 09:52:08;;;;;;;;;;;8.10;79.70;;;7.68;44.40;97979.94;5000383;28;19927;-84
2022/03/10 09:54:34;;;;;;;;;;;8.20;79.50;;;7.52;43.76;97941.66;5005074;28;19921;-82
2022/03/10 09:57:00;;;;;;;;;;;8.30;78.50;;;7.79;43.69;97971.88;5011083;28;19917;-83
2022/03/10 09:59:30;;;;;;;;;;;8.30;78.30;;;7.78;43.67;97968.38;4991565;28;19925;-85
2022/03/10 10:01:56;;;;;;;;;;;8.40;77.90;;;7.99;43.78;97976.78;5010312;28;20379;-84
2022/03/10 10:04:23;;;;;;;;;;;8.50;77.80;;;8.20;42.86;97971.16;4995553;28;19917;-85
2022/03/10 10:07:01;;;;;;;;;;;8.60;76.30;;;8.19;42.49;97969.41;5024342;28;20003;-83
2022/03/10 10:09:47;;;;;;;;;;;8.70;76.20;;;8.17;42.74;97963.31;4994337;28;19963;-85
2022/03/10 10:12:14;;;;;;;;;;;8.70;76.10;;;8.25;42.32;97954.41;4987912;28;19923;-87
2022/03/10 10:14:43;;;;;;;;;;;8.80;75.80;;;8.38;42.42;97953.28;5010583;28;20014;-86
2022/03/10 10:17:09;;;;;;;;;;;8.90;75.80;;;8.35;42.32;97940.22;4978500;28;19921;-85
2022/03/10 10:19:36;;;;;;;;;;;8.90;76.10;;;8.37;42.38;97939.28;4997347;28;19927;-87
2022/03/10 10:22:09;;;;;;;;;;;9.00;75.60;;;8.55;42.46;97945.97;4980560;28;19947;-87
2022/03/10 10:24:36;;;;;;;;;;;9.00;75.10;;;8.56;41.56;97933.69;5016014;28;20097;-83
2022/03/10 10:27:19;;;;;;;;;;;9.10;74.60;;;8.73;41.39;97928.94;4977717;28;19921;-84
2022/03/10 10:29:52;;;;;;;;;;;9.20;74.30;;;8.95;40.97;97917.97;5014002;28;19916;-84
2022/03/10 10:32:35;;;;;;;;;;;9.40;73.30;;;9.27;40.57;97933.03;4999460;28;20007;-84
2022/03/10 10:35:08;;;;;;;;;;;9.60;73.10;;;9.38;40.35;97895.91;5013623;28;19925;-87
2022/03/10 10:37:38;;;;;;;;;;;9.80;72.50;;;9.46;40.30;97896.63;4984814;28;19932;-86
2022/03/10 10:40:05;;;;;;;;;;;10.10;72.30;;;9.68;39.64;97930.31;4998589;28;20684;-86
2022/03/10 10:42:33;;;;;;;;;;;10.10;71.30;;;9.63;39.79;97909.34;4999900;28;19996;-83
2022/03/10 10:45:00;;;;;;;;;;;10.20;70.90;;;9.80;38.83;97927.38;4997324;28;20255;-86
2022/03/10 10:47:27;;;;;;;;;;;10.20;69.60;;;9.75;38.86;97902.91;4998635;28;20055;-86
2022/03/10 10:50:04;;;;;;;;;;;10.30;69.40;;;9.77;39.02;97905.50;5012622;28;19924;-88
2022/03/10 10:52:40;;;;;;;;;;;10.20;69.60;;;9.71;38.99;97893.38;4983854;28;19927;-87
2022/03/10 10:55:10;;;;;;;;;;;10.30;69.00;;;10.05;38.52;97906.53;5000049;28;19921;-83
2022/03/10 10:57:37;;;;;;;;;;;10.40;68.40;;;10.12;38.17;97887.00;5010574;28;19917;-87
2022/03/10 11:00:12;;;;;;;;;;;10.60;68.20;;;10.38;37.46;97903.88;5001522;28;19912;-86
2022/03/10 11:02:42;;;;;;;;;;;10.80;67.10;;;10.41;37.29;97892.38;5001841;28;20376;-84
2022/03/10 11:05:11;;;;;;;;;;;10.90;66.40;;;10.37;36.93;97872.28;5002681;28;19927;-83
2022/03/10 11:07:39;;;;;;;;;;;10.90;66.60;;;10.52;36.05;97874.50;5018145;28;19927;-88
2022/03/10 11:10:08;;;;;;;;;;;11.10;64.70;;;10.63;36.02;97875.03;5001883;28;20357;-85
2022/03/10 11:12:39;;;;;;;;;;;11.20;64.20;;;10.77;36.23;97894.88;5008512;28;19928;-84
2022/03/10 11:15:07;;;;;;;;;;;11.20;64.20;;;10.50;36.44;97864.00;4987492;28;19921;-86
2022/03/10 11:17:34;;;;;;;;;;;11.10;64.10;;;10.86;35.67;97894.59;5000971;28;20210;-84
2022/03/10 11:20:02;;;;;;;;;;;11.20;63.40;;;10.89;35.07;97895.38;5026013;28;19920;-86
2022/03/10 11:22:50;;;;;;;;;;;11.20;62.10;;;10.79;34.94;97877.22;5022270;28;19916;-86
2022/03/10 11:25:51;;;;;;;;;;;11.30;61.90;;;10.87;34.06;97889.28;5005086;28;19928;-88
2022/03/10 11:28:19;;;;;;;;;;;11.30;60.40;;;10.78;34.09;97872.84;5000679;28;20357;-84
2022/03/10 11:30:50;;;;;;;;;;;11.20;59.80;;;10.97;34.29;97878.44;5010168;28;20530;-83
2022/03/10 11:33:16;;;;;;;;;;;11.30;60.00;;;11.00;33.98;97862.50;5002897;28;19946;-85